Time,TemperatureF,DewpointF,PressureIn,WindDirection,WindDirectionDegrees,WindSpeedMPH,WindSpeedGustMPH,Humidity,HourlyPrecipIn,Conditions,Clouds,dailyrainin,SoftwareType,DateUTC
2013-06-27 00:09:00,74.5,73.9,29.86,SSE,157,1.6,-999.0,98,-99.99,,,0.00,Acu-Link.com,2013-06-27 04:09:00,
2013-06-27 00:24:00,73.9,73.3,29.86,SSE,157,0.0,-999.0,98,-99.99,,,0.00,Acu-Link.com,2013-06-27 04:24:00,
2013-06-27 00:39:00,73.9,73.3,29.88,SSE,157,0.0,-999.0,98,-99.99,,,0.00,Acu-Link.com,2013-06-27 04:39:00,
2013-06-27 00:54:00,74.3,73.7,29.87,SSE,157,1.6,-999.0,98,-99.99,,,0.00,Acu-Link.com,2013-06-27 04:54:00,
2013-06-27 00:55:00,74.3,73.7,29.87,SSE,157,1.6,-999.0,98,-99.99,,,0.00,Acu-Link.com,2013-06-27 04:55:00,
2013-06-27 01:10:00,74.5,73.9,29.87,SSE,157,0.0,-999.0,98,-99.99,,,0.00,Acu-Link.com,2013-06-27 05:10:00,
2013-06-27 01:25:00,74.7,74.1,29.87,SSE,157,2.2,-999.0,98,-99.99,,,0.00,Acu-Link.com,2013-06-27 05:25:00,
2013-06-27 01:40:00,75.2,74.6,29.86,SE,135,2.2,-999.0,98,-99.99,,,0.00,Acu-Link.com,2013-06-27 05:40:00,
2013-06-27 01:55:00,75.4,74.8,29.85,SSE,157,3.8,-999.0,98,-99.99,,,0.00,Acu-Link.com,2013-06-27 05:55:00,
2013-06-27 02:11:00,75.7,75.1,29.85,SSE,157,1.6,-999.0,98,-99.99,,,0.00,Acu-Link.com,2013-06-27 06:11:00,
2013-06-27 02:26:00,75.6,75.0,29.84,NNE,22,2.2,-999.0,98,-99.99,,,0.00,Acu-Link.com,2013-06-27 06:26:00,
2013-06-27 02:41:00,76.8,76.2,29.84,East,90,3.1,-999.0,98,-99.99,,,0.00,Acu-Link.com,2013-06-27 06:41:00,
2013-06-27 02:58:00,75.2,74.6,29.84,SSE,157,3.1,-999.0,98,-99.99,,,0.00,Acu-Link.com,2013-06-27 06:58:00,
2013-06-27 03:13:00,75.4,74.8,29.83,SSE,157,3.1,-999.0,98,-99.99,,,0.00,Acu-Link.com,2013-06-27 07:13:00,
2013-06-27 03:28:00,75.2,74.6,29.83,SSE,157,2.2,-999.0,98,-99.99,,,0.00,Acu-Link.com,2013-06-27 07:28:00,
2013-06-27 03:44:00,75.0,74.4,29.83,SSE,157,2.7,-999.0,98,-99.99,,,0.00,Acu-Link.com,2013-06-27 07:44:00,
2013-06-27 03:59:00,75.2,74.6,29.82,SSE,157,2.7,-999.0,98,-99.99,,,0.00,Acu-Link.com,2013-06-27 07:59:00,
2013-06-27 04:14:00,75.0,74.4,29.82,SE,135,2.7,-999.0,98,-99.99,,,0.00,Acu-Link.com,2013-06-27 08:14:00,
2013-06-27 04:29:00,74.8,74.2,29.82,North,0,1.1,-999.0,98,-99.99,,,0.00,Acu-Link.com,2013-06-27 08:29:00,
2013-06-27 04:45:00,74.8,74.2,29.82,ESE,112,1.6,-999.0,98,-99.99,,,0.00,Acu-Link.com,2013-06-27 08:45:00,
2013-06-27 05:00:00,74.7,74.1,29.81,SSE,157,1.6,-999.0,98,-99.99,,,0.00,Acu-Link.com,2013-06-27 09:00:00,
2013-06-27 05:15:00,74.5,73.9,29.80,NE,45,0.0,-999.0,98,-99.99,,,0.00,Acu-Link.com,2013-06-27 09:15:00,
2013-06-27 05:30:00,74.1,73.5,29.81,ESE,112,1.1,-999.0,98,-99.99,,,0.00,Acu-Link.com,2013-06-27 09:30:00,
2013-06-27 05:45:00,73.9,73.3,29.82,ENE,67,1.1,-999.0,98,-99.99,,,0.00,Acu-Link.com,2013-06-27 09:45:00,
2013-06-27 06:00:00,74.1,73.5,29.82,SE,135,1.1,-999.0,98,-99.99,,,0.00,Acu-Link.com,2013-06-27 10:00:00,
2013-06-27 06:15:00,74.1,73.5,29.81,SSE,157,3.1,-999.0,98,-99.99,,,0.00,Acu-Link.com,2013-06-27 10:15:00,
2013-06-27 06:31:00,73.9,73.3,29.80,ESE,112,2.2,-999.0,98,-99.99,,,0.00,Acu-Link.com,2013-06-27 10:31:00,
2013-06-27 06:46:00,73.9,73.3,29.80,SSW,202,2.2,-999.0,98,-99.99,,,0.00,Acu-Link.com,2013-06-27 10:46:00,
2013-06-27 07:01:00,73.9,73.3,29.80,ESE,112,1.1,-999.0,98,-99.99,,,0.00,Acu-Link.com,2013-06-27 11:01:00,
2013-06-27 07:16:00,74.1,73.5,29.80,NNE,22,1.6,-999.0,98,-99.99,,,0.00,Acu-Link.com,2013-06-27 11:16:00,
2013-06-27 07:31:00,74.5,73.9,29.80,SE,135,2.7,-999.0,98,-99.99,,,0.00,Acu-Link.com,2013-06-27 11:31:00,
2013-06-27 07:47:00,74.8,74.2,29.81,East,90,1.6,-999.0,98,-99.99,,,0.00,Acu-Link.com,2013-06-27 11:47:00,
2013-06-27 08:02:00,75.0,74.4,29.82,East,90,2.7,-999.0,98,-99.99,,,0.00,Acu-Link.com,2013-06-27 12:02:00,
2013-06-27 08:17:00,75.6,75.0,29.82,NNE,22,3.1,-999.0,98,-99.99,,,0.00,Acu-Link.com,2013-06-27 12:17:00,
2013-06-27 08:32:00,76.6,76.0,29.81,SSE,157,4.7,-999.0,98,-99.99,,,0.00,Acu-Link.com,2013-06-27 12:32:00,
2013-06-27 08:48:00,77.2,76.3,29.81,NE,45,2.7,-999.0,97,-99.99,,,0.00,Acu-Link.com,2013-06-27 12:48:00,
2013-06-27 09:03:00,77.9,75.7,29.81,SE,135,3.8,-999.0,93,-99.99,,,0.00,Acu-Link.com,2013-06-27 13:03:00,
2013-06-27 09:18:00,79.0,76.4,29.81,NE,45,4.3,-999.0,92,-99.99,,,0.00,Acu-Link.com,2013-06-27 13:18:00,
2013-06-27 09:33:00,79.9,76.3,29.81,North,0,3.1,-999.0,89,-99.99,,,0.00,Acu-Link.com,2013-06-27 13:33:00,
2013-06-27 09:48:00,80.6,76.0,29.80,SW,225,2.7,-999.0,86,-99.99,,,0.00,Acu-Link.com,2013-06-27 13:48:00,
2013-06-27 10:04:00,80.4,75.8,29.81,WNW,292,1.6,-999.0,86,-99.99,,,0.00,Acu-Link.com,2013-06-27 14:04:00,
2013-06-27 10:19:00,81.7,76.4,29.82,West,270,1.6,-999.0,84,-99.99,,,0.00,Acu-Link.com,2013-06-27 14:19:00,
2013-06-27 10:34:00,81.0,75.7,29.80,NW,315,2.2,-999.0,84,-99.99,,,0.00,Acu-Link.com,2013-06-27 14:34:00,
2013-06-27 10:49:00,83.3,77.6,29.80,NW,315,2.2,-999.0,83,-99.99,,,0.00,Acu-Link.com,2013-06-27 14:49:00,
2013-06-27 11:04:00,85.6,76.8,29.81,ESE,112,2.2,-999.0,75,-99.99,,,0.00,Acu-Link.com,2013-06-27 15:04:00,
2013-06-27 11:20:00,86.7,77.4,29.81,SSE,157,3.8,-999.0,74,-99.99,,,0.00,Acu-Link.com,2013-06-27 15:20:00,
2013-06-27 11:35:00,85.3,75.2,29.81,NE,45,2.2,-999.0,72,-99.99,,,0.00,Acu-Link.com,2013-06-27 15:35:00,
2013-06-27 11:50:00,82.9,75.0,29.82,South,180,2.7,-999.0,77,-99.99,,,0.00,Acu-Link.com,2013-06-27 15:50:00,
2013-06-27 12:05:00,88.3,78.1,29.80,NE,45,2.2,-999.0,72,-99.99,,,0.00,Acu-Link.com,2013-06-27 16:05:00,
2013-06-27 12:20:00,89.8,78.7,29.80,South,180,3.1,-999.0,70,-99.99,,,0.00,Acu-Link.com,2013-06-27 16:20:00,
2013-06-27 12:36:00,91.0,78.5,29.79,NW,315,3.8,-999.0,67,-99.99,,,0.00,Acu-Link.com,2013-06-27 16:36:00,
2013-06-27 12:51:00,89.8,77.8,29.79,SE,135,2.7,-999.0,68,-99.99,,,0.00,Acu-Link.com,2013-06-27 16:51:00,
2013-06-27 13:06:00,88.3,77.3,29.79,SSE,157,5.8,-999.0,70,-99.99,,,0.00,Acu-Link.com,2013-06-27 17:06:00,
2013-06-27 13:21:00,87.4,77.7,29.79,ESE,112,3.8,-999.0,73,-99.99,,,0.00,Acu-Link.com,2013-06-27 17:21:00,
2013-06-27 13:37:00,86.2,77.7,29.78,SE,135,2.2,-999.0,76,-99.99,,,0.00,Acu-Link.com,2013-06-27 17:37:00,
2013-06-27 13:52:00,88.3,79.4,29.78,SSW,202,2.7,-999.0,75,-99.99,,,0.00,Acu-Link.com,2013-06-27 17:52:00,
2013-06-27 14:07:00,86.0,77.9,29.78,NNW,337,3.1,-999.0,77,-99.99,,,0.00,Acu-Link.com,2013-06-27 18:07:00,
2013-06-27 14:22:00,84.2,77.7,29.77,WNW,292,2.2,-999.0,81,-99.99,,,0.00,Acu-Link.com,2013-06-27 18:22:00,
2013-06-27 14:37:00,82.6,77.6,29.77,NNE,22,0.0,-999.0,85,-99.99,,,0.00,Acu-Link.com,2013-06-27 18:37:00,
2013-06-27 14:52:00,82.0,77.4,29.77,ESE,112,3.8,-999.0,86,-99.99,,,0.00,Acu-Link.com,2013-06-27 18:52:00,
2013-06-27 15:07:00,82.2,78.0,29.77,ENE,67,3.8,-999.0,87,-99.99,,,0.00,Acu-Link.com,2013-06-27 19:07:00,
2013-06-27 15:23:00,83.5,78.5,29.77,SE,135,3.8,-999.0,85,-99.99,,,0.00,Acu-Link.com,2013-06-27 19:23:00,
2013-06-27 15:38:00,87.4,80.9,29.76,East,90,2.7,-999.0,81,-99.99,,,0.00,Acu-Link.com,2013-06-27 19:38:00,
2013-06-27 15:53:00,90.5,80.6,29.76,WSW,247,2.7,-999.0,73,-99.99,,,0.00,Acu-Link.com,2013-06-27 19:53:00,
2013-06-27 16:08:00,89.2,79.8,29.75,ESE,112,1.6,-999.0,74,-99.99,,,0.00,Acu-Link.com,2013-06-27 20:08:00,
2013-06-27 16:24:00,92.5,79.9,29.74,NW,315,3.8,-999.0,67,-99.99,,,0.00,Acu-Link.com,2013-06-27 20:24:00,
2013-06-27 16:39:00,92.3,80.2,29.73,NNE,22,1.1,-999.0,68,-99.99,,,0.00,Acu-Link.com,2013-06-27 20:39:00,
2013-06-27 16:54:00,88.9,78.2,29.72,NE,45,1.1,-999.0,71,-99.99,,,0.00,Acu-Link.com,2013-06-27 20:54:00,
2013-06-27 17:09:00,90.7,80.0,29.71,SSW,202,2.7,-999.0,71,-99.99,,,0.00,Acu-Link.com,2013-06-27 21:09:00,
2013-06-27 17:24:00,90.7,78.6,29.70,SW,225,1.6,-999.0,68,-99.99,,,0.00,Acu-Link.com,2013-06-27 21:24:00,
2013-06-27 17:40:00,91.0,79.0,29.71,NW,315,3.1,-999.0,68,-99.99,,,0.00,Acu-Link.com,2013-06-27 21:40:00,
2013-06-27 17:55:00,88.3,79.0,29.71,WNW,292,2.2,-999.0,74,-99.99,,,0.00,Acu-Link.com,2013-06-27 21:55:00,
2013-06-27 18:10:00,88.9,79.5,29.70,SSE,157,2.7,-999.0,74,-99.99,,,0.00,Acu-Link.com,2013-06-27 22:10:00,
2013-06-27 18:25:00,87.8,79.3,29.70,SE,135,2.2,-999.0,76,-99.99,,,0.00,Acu-Link.com,2013-06-27 22:25:00,
2013-06-27 18:40:00,86.4,78.7,29.71,North,0,1.1,-999.0,78,-99.99,,,0.00,Acu-Link.com,2013-06-27 22:40:00,
2013-06-27 18:56:00,85.5,78.2,29.71,WNW,292,0.0,-999.0,79,-99.99,,,0.00,Acu-Link.com,2013-06-27 22:56:00,
2013-06-27 19:11:00,84.2,77.7,29.71,South,180,1.6,-999.0,81,-99.99,,,0.00,Acu-Link.com,2013-06-27 23:11:00,
2013-06-27 19:26:00,82.9,77.6,29.71,South,180,2.2,-999.0,84,-99.99,,,0.00,Acu-Link.com,2013-06-27 23:26:00,
2013-06-27 19:41:00,82.0,77.8,29.72,SSE,157,2.2,-999.0,87,-99.99,,,0.00,Acu-Link.com,2013-06-27 23:41:00,
2013-06-27 19:56:00,81.3,77.4,29.72,SSE,157,2.7,-999.0,88,-99.99,,,0.00,Acu-Link.com,2013-06-27 23:56:00,
2013-06-27 20:12:00,80.8,77.6,29.71,South,180,1.6,-999.0,90,-99.99,,,0.00,Acu-Link.com,2013-06-28 00:12:00,
2013-06-27 20:27:00,80.1,77.5,29.70,SSE,157,2.2,-999.0,92,-99.99,,,0.00,Acu-Link.com,2013-06-28 00:27:00,
2013-06-27 20:42:00,79.7,77.8,29.70,South,180,1.6,-999.0,94,-99.99,,,0.00,Acu-Link.com,2013-06-28 00:42:00,
2013-06-27 20:57:00,79.3,77.8,29.71,SSW,202,0.0,-999.0,95,-99.99,,,0.00,Acu-Link.com,2013-06-28 00:57:00,
2013-06-27 21:13:00,79.2,78.2,29.70,South,180,0.0,-999.0,97,-99.99,,,0.00,Acu-Link.com,2013-06-28 01:13:00,
2013-06-27 21:28:00,79.2,78.5,29.70,SSE,157,2.7,-999.0,98,-99.99,,,0.00,Acu-Link.com,2013-06-28 01:28:00,
2013-06-27 21:43:00,78.8,78.2,29.71,WNW,292,0.0,-999.0,98,-99.99,,,0.00,Acu-Link.com,2013-06-28 01:43:00,
2013-06-27 21:58:00,78.3,77.6,29.71,SE,135,0.0,-999.0,98,-99.99,,,0.00,Acu-Link.com,2013-06-28 01:58:00,
2013-06-27 22:13:00,78.1,77.5,29.72,South,180,0.0,-999.0,98,-99.99,,,0.00,Acu-Link.com,2013-06-28 02:13:00,
2013-06-27 22:29:00,77.7,77.1,29.73,SE,135,0.0,-999.0,98,-99.99,,,0.00,Acu-Link.com,2013-06-28 02:29:00,
2013-06-27 22:44:00,77.2,76.6,29.73,WSW,247,0.0,-999.0,98,-99.99,,,0.00,Acu-Link.com,2013-06-28 02:44:00,
2013-06-27 22:59:00,76.5,75.9,29.74,WSW,247,0.0,-999.0,98,-99.99,,,0.00,Acu-Link.com,2013-06-28 02:59:00,
2013-06-27 23:14:00,75.7,75.1,29.73,South,180,1.6,-999.0,98,-99.99,,,0.00,Acu-Link.com,2013-06-28 03:14:00,
2013-06-27 23:29:00,75.2,74.6,29.73,SSE,157,2.2,-999.0,98,-99.99,,,0.00,Acu-Link.com,2013-06-28 03:29:00,
2013-06-27 23:45:00,74.8,74.2,29.73,South,180,1.6,-999.0,98,-99.99,,,0.00,Acu-Link.com,2013-06-28 03:45:00,